createdAt,value
2018-06-21T00:00:59.746Z,23.90
2018-06-21T00:03:28.948Z,23.90
2018-06-21T00:05:57.835Z,23.90
2018-06-21T00:08:26.625Z,23.90
2018-06-21T00:10:55.414Z,23.80
2018-06-21T00:13:24.407Z,23.80
2018-06-21T00:15:53.401Z,23.80
2018-06-21T00:18:22.190Z,23.70
2018-06-21T00:20:50.978Z,23.70
2018-06-21T00:23:19.769Z,23.70
2018-06-21T00:25:48.761Z,23.70
2018-06-21T00:28:17.550Z,23.60
2018-06-21T00:30:46.448Z,23.60
2018-06-21T00:33:15.233Z,23.50
2018-06-21T00:35:44.348Z,23.50
2018-06-21T00:38:13.426Z,23.50
2018-06-21T00:40:42.318Z,23.50
2018-06-21T00:43:11.210Z,23.50
2018-06-21T00:45:39.943Z,23.40
2018-06-21T00:48:08.782Z,23.40
2018-06-21T00:50:37.574Z,23.40
2018-06-21T00:53:06.466Z,23.40
2018-06-21T00:55:46.524Z,23.40
2018-06-21T00:58:15.310Z,23.30
2018-06-21T01:00:44.201Z,23.20
2018-06-21T01:03:13.044Z,23.20
2018-06-21T01:05:41.983Z,23.20
2018-06-21T01:08:10.772Z,23.20
2018-06-21T01:10:39.562Z,23.20
2018-06-21T01:13:08.452Z,23.30
2018-06-21T01:15:37.344Z,23.20
2018-06-21T01:18:06.202Z,23.30
2018-06-21T01:20:34.893Z,23.20
2018-06-21T01:23:03.701Z,23.20
2018-06-21T01:25:32.548Z,23.10
2018-06-21T01:28:01.353Z,23.10
2018-06-21T01:30:30.065Z,23.10
2018-06-21T01:32:58.889Z,23.00
2018-06-21T01:35:27.645Z,23.00
2018-06-21T01:37:56.434Z,23.00
2018-06-21T01:40:25.225Z,22.90
2018-06-21T01:42:54.145Z,22.90
2018-06-21T01:45:23.106Z,22.90
2018-06-21T01:47:51.826Z,22.90
2018-06-21T01:52:49.473Z,22.90
2018-06-21T01:55:18.189Z,22.90
2018-06-21T01:57:46.948Z,22.90
2018-06-21T02:00:15.737Z,22.90
2018-06-21T02:02:44.526Z,22.80
2018-06-21T02:05:13.417Z,22.80
2018-06-21T02:07:42.207Z,22.80
2018-06-21T02:10:10.878Z,22.70
2018-06-21T02:12:39.888Z,22.70
2018-06-21T02:15:08.835Z,22.70
2018-06-21T02:17:37.669Z,22.70
2018-06-21T02:20:06.562Z,22.70
2018-06-21T02:22:35.274Z,22.70
2018-06-21T02:25:04.070Z,22.60
2018-06-21T02:27:32.834Z,22.60
2018-06-21T02:30:01.617Z,22.60
2018-06-21T02:32:30.508Z,22.60
2018-06-21T02:34:59.498Z,22.50
2018-06-21T02:37:28.287Z,22.50
2018-06-21T02:39:57.075Z,22.40
2018-06-21T02:42:25.865Z,22.40
2018-06-21T02:44:54.653Z,22.40
2018-06-21T02:47:23.332Z,22.40
2018-06-21T02:49:52.136Z,22.40
2018-06-21T02:52:21.021Z,22.40
2018-06-21T02:54:49.738Z,22.30
2018-06-21T02:57:18.601Z,22.30
2018-06-21T02:59:47.594Z,22.40
2018-06-21T03:02:16.386Z,22.30
2018-06-21T03:04:45.217Z,22.30
2018-06-21T03:07:14.112Z,22.40
2018-06-21T03:09:42.878Z,22.30
2018-06-21T03:12:16.963Z,22.40
2018-06-21T03:14:45.854Z,22.40
2018-06-21T03:17:14.745Z,22.40
2018-06-21T03:19:43.535Z,22.40
2018-06-21T03:22:12.657Z,22.30
2018-06-21T03:24:41.522Z,22.30
2018-06-21T03:27:10.930Z,22.20
2018-06-21T03:29:40.019Z,22.30
2018-06-21T03:32:08.912Z,22.30
2018-06-21T03:34:37.804Z,22.20
2018-06-21T03:37:06.634Z,22.20
2018-06-21T03:39:35.412Z,22.20
2018-06-21T03:42:04.480Z,22.20
2018-06-21T03:44:33.294Z,22.20
2018-06-21T03:47:02.159Z,22.20
2018-06-21T03:49:30.949Z,22.20
2018-06-21T03:51:59.737Z,22.10
2018-06-21T03:54:28.526Z,22.20
2018-06-21T03:56:57.323Z,22.20
2018-06-21T03:59:26.141Z,22.20
2018-06-21T04:01:54.926Z,22.10
2018-06-21T04:04:23.713Z,22.00
2018-06-21T04:06:52.472Z,22.00
2018-06-21T04:09:21.185Z,22.00
2018-06-21T04:11:49.948Z,22.10
2018-06-21T04:14:18.836Z,22.10
2018-06-21T04:16:47.623Z,22.20
2018-06-21T04:19:16.412Z,22.30
2018-06-21T04:21:45.246Z,22.40
2018-06-21T04:24:14.195Z,22.50
2018-06-21T04:26:42.985Z,22.60
2018-06-21T04:29:11.978Z,22.80
2018-06-21T04:31:40.797Z,22.90
2018-06-21T04:34:09.558Z,23.00
2018-06-21T04:36:38.448Z,23.10
2018-06-21T04:39:08.359Z,23.10
2018-06-21T04:41:37.150Z,23.30
2018-06-21T04:44:05.866Z,23.30
2018-06-21T04:46:34.555Z,23.50
2018-06-21T04:49:03.279Z,23.60
2018-06-21T04:51:32.408Z,23.70
2018-06-21T04:54:01.191Z,23.90
2018-06-21T04:56:30.190Z,24.00
2018-06-21T04:58:58.980Z,24.00
2018-06-21T05:01:27.872Z,24.00
2018-06-21T05:03:57.106Z,24.30
2018-06-21T05:06:25.883Z,24.40
2018-06-21T05:08:54.647Z,24.50
2018-06-21T05:11:23.773Z,24.50
2018-06-21T05:13:52.635Z,24.60
2018-06-21T05:16:21.525Z,24.70
2018-06-21T05:18:50.417Z,24.90
2018-06-21T05:21:19.307Z,25.00
2018-06-21T05:23:48.098Z,25.10
2018-06-21T05:26:16.814Z,25.00
2018-06-21T05:28:45.406Z,25.30
2018-06-21T05:31:14.053Z,25.50
2018-06-21T05:33:42.941Z,25.40
2018-06-21T05:36:11.577Z,25.50
2018-06-21T05:38:40.197Z,25.50
2018-06-21T05:41:09.034Z,25.60
2018-06-21T05:43:37.627Z,25.80
2018-06-21T05:46:06.302Z,25.80
2018-06-21T05:48:34.989Z,25.90
2018-06-21T05:51:03.595Z,26.00
2018-06-21T05:53:32.228Z,26.10
2018-06-21T05:56:01.042Z,26.10
2018-06-21T05:58:29.637Z,26.30
2018-06-21T06:00:58.365Z,26.10
2018-06-21T06:03:27.008Z,26.10
2018-06-21T06:05:55.865Z,26.00
2018-06-21T06:08:24.570Z,25.90
2018-06-21T06:10:53.173Z,25.90
2018-06-21T06:13:21.833Z,26.10
2018-06-21T06:15:50.456Z,26.40
2018-06-21T06:18:19.041Z,26.50
2018-06-21T06:20:47.678Z,26.60
2018-06-21T06:23:16.264Z,26.90
2018-06-21T06:25:44.966Z,27.00
2018-06-21T06:28:13.540Z,27.20
2018-06-21T06:30:42.151Z,27.30
2018-06-21T06:33:10.817Z,27.40
2018-06-21T06:35:39.412Z,27.30
2018-06-21T06:38:08.060Z,27.30
2018-06-21T06:40:36.824Z,27.30
2018-06-21T06:43:05.555Z,27.40
2018-06-21T06:45:35.118Z,27.70
2018-06-21T06:48:03.958Z,27.50
2018-06-21T06:50:32.631Z,27.50
2018-06-21T06:53:01.364Z,27.90
2018-06-21T06:55:30.041Z,27.80
2018-06-21T06:57:58.669Z,27.80
2018-06-21T07:00:27.645Z,27.90
2018-06-21T07:02:56.497Z,27.90
2018-06-21T07:05:25.167Z,28.00
2018-06-21T07:07:53.972Z,28.10
2018-06-21T07:10:22.583Z,28.20
2018-06-21T07:12:51.270Z,28.20
2018-06-21T07:15:19.953Z,28.30
2018-06-21T07:20:17.271Z,28.60
2018-06-21T07:22:45.902Z,28.70
2018-06-21T07:25:14.510Z,28.70
2018-06-21T07:27:43.152Z,28.80
2018-06-21T07:30:11.936Z,28.90
2018-06-21T07:32:40.836Z,28.90
2018-06-21T07:35:09.437Z,28.90
2018-06-21T07:37:38.164Z,28.90
2018-06-21T07:40:07.788Z,28.70
2018-06-21T07:42:36.580Z,28.80
2018-06-21T07:45:05.411Z,29.10
2018-06-21T07:47:34.191Z,29.00
2018-06-21T07:50:03.013Z,29.20
2018-06-21T07:52:31.842Z,29.20
2018-06-21T07:55:01.429Z,29.20
2018-06-21T07:57:30.419Z,29.00
2018-06-21T07:59:59.146Z,28.90
2018-06-21T08:02:27.917Z,29.10
2018-06-21T08:04:56.604Z,29.10
2018-06-21T08:07:25.427Z,29.10
2018-06-21T08:09:54.057Z,29.00
2018-06-21T08:12:22.676Z,29.10
2018-06-21T08:14:51.441Z,29.10
2018-06-21T08:17:20.044Z,29.20
2018-06-21T08:19:49.065Z,29.20
2018-06-21T08:22:17.804Z,29.10
2018-06-21T08:24:46.419Z,29.10
2018-06-21T08:27:15.096Z,29.20
2018-06-21T08:29:43.892Z,29.20
2018-06-21T08:32:12.684Z,29.40
2018-06-21T08:34:41.317Z,29.60
2018-06-21T08:37:10.348Z,29.70
2018-06-21T08:39:38.994Z,29.80
2018-06-21T08:42:07.644Z,29.90
2018-06-21T08:44:36.239Z,29.90
2018-06-21T08:49:33.460Z,29.70
2018-06-21T08:52:02.216Z,29.60
2018-06-21T08:54:31.192Z,29.70
2018-06-21T08:57:00.047Z,29.60
2018-06-21T08:59:28.700Z,29.40
2018-06-21T09:01:57.438Z,29.50
2018-06-21T09:04:26.105Z,29.40
2018-06-21T09:06:54.736Z,29.50
2018-06-21T09:09:23.437Z,29.60
2018-06-21T09:11:52.083Z,29.30
2018-06-21T09:14:20.930Z,29.60
2018-06-21T09:16:49.564Z,29.80
2018-06-21T09:19:18.322Z,30.00
2018-06-21T09:21:46.936Z,30.00
2018-06-21T09:24:16.330Z,29.90
2018-06-21T09:26:45.065Z,30.10
2018-06-21T09:29:13.709Z,30.10
2018-06-21T09:31:42.304Z,29.80
2018-06-21T09:34:10.953Z,29.60
2018-06-21T09:36:41.232Z,29.80
2018-06-21T09:39:16.753Z,29.70
2018-06-21T09:41:51.084Z,29.90
2018-06-21T09:44:25.199Z,29.60
2018-06-21T09:46:59.174Z,29.70
2018-06-21T09:49:30.864Z,29.70
2018-06-21T09:54:29.743Z,29.70
2018-06-21T09:56:58.893Z,29.90
2018-06-21T09:59:28.288Z,30.20
2018-06-21T10:01:57.064Z,29.80
2018-06-21T10:04:25.916Z,29.50
2018-06-21T10:06:54.528Z,29.30
2018-06-21T10:09:23.224Z,29.60
2018-06-21T10:11:51.884Z,29.70
2018-06-21T10:14:20.869Z,29.70
2018-06-21T10:19:17.909Z,29.50
2018-06-21T10:21:46.542Z,29.60
2018-06-21T10:24:15.200Z,29.80
2018-06-21T10:26:43.941Z,30.20
2018-06-21T10:31:40.966Z,30.10
2018-06-21T10:34:09.763Z,30.30
2018-06-21T10:36:38.425Z,30.20
2018-06-21T10:39:09.578Z,30.10
2018-06-21T10:41:38.465Z,30.20
2018-06-21T10:44:07.110Z,30.20
2018-06-21T10:46:35.880Z,30.10
2018-06-21T10:49:04.678Z,30.20
2018-06-21T10:51:33.277Z,30.20
2018-06-21T10:54:02.126Z,30.20
2018-06-21T10:56:30.770Z,30.20
2018-06-21T10:58:59.416Z,30.20
2018-06-21T11:01:28.260Z,30.30
2018-06-21T11:03:56.940Z,30.50
2018-06-21T11:06:26.020Z,30.40
2018-06-21T11:08:54.812Z,30.20
2018-06-21T11:11:23.450Z,30.20
2018-06-21T11:13:52.213Z,30.20
2018-06-21T11:16:20.996Z,30.40
2018-06-21T11:18:49.670Z,30.50
2018-06-21T11:21:18.356Z,30.30
2018-06-21T11:23:47.187Z,30.20
2018-06-21T11:26:15.884Z,30.00
2018-06-21T11:28:44.588Z,29.80
2018-06-21T11:31:13.462Z,29.70
2018-06-21T11:33:42.094Z,29.70
2018-06-21T11:36:11.732Z,29.80
2018-06-21T11:38:40.458Z,30.10
2018-06-21T11:41:09.069Z,29.90
2018-06-21T11:43:37.730Z,29.80
2018-06-21T11:46:06.412Z,29.90
2018-06-21T11:48:35.054Z,30.00
2018-06-21T11:51:03.703Z,29.80
2018-06-21T11:53:32.625Z,29.70
2018-06-21T11:56:01.321Z,29.50
2018-06-21T11:58:29.951Z,29.60
2018-06-21T12:00:58.567Z,29.60
2018-06-21T12:03:27.281Z,29.40
2018-06-21T12:05:55.902Z,29.30
2018-06-21T12:10:53.328Z,29.40
2018-06-21T12:13:22.174Z,29.60
2018-06-21T12:15:50.809Z,29.70
2018-06-21T12:18:19.464Z,29.50
2018-06-21T12:20:48.075Z,29.40
2018-06-21T12:23:16.783Z,29.20
2018-06-21T12:25:45.430Z,28.90
2018-06-21T12:28:14.190Z,28.80
2018-06-21T12:30:42.994Z,28.80
2018-06-21T12:33:11.641Z,29.00
2018-06-21T12:35:40.602Z,29.10
2018-06-21T12:38:09.594Z,28.90
2018-06-21T12:40:38.699Z,28.70
2018-06-21T12:43:07.361Z,28.00
2018-06-21T12:45:36.067Z,27.50
2018-06-21T12:48:05.266Z,27.30
2018-06-21T12:50:33.981Z,26.60
2018-06-21T12:53:02.853Z,25.80
2018-06-21T12:55:31.545Z,25.50
2018-06-21T12:58:00.358Z,25.20
2018-06-21T13:00:29.377Z,24.90
2018-06-21T13:02:58.104Z,25.00
2018-06-21T13:05:26.779Z,25.30
2018-06-21T13:07:55.781Z,25.20
2018-06-21T13:10:35.781Z,24.90
2018-06-21T13:13:15.543Z,24.80
2018-06-21T13:15:44.266Z,24.00
2018-06-21T13:18:12.927Z,23.80
2018-06-21T13:20:41.689Z,23.90
2018-06-21T13:23:10.633Z,24.10
2018-06-21T13:25:39.220Z,24.10
2018-06-21T13:28:08.021Z,24.00
2018-06-21T13:30:36.777Z,23.80
2018-06-21T13:33:05.792Z,23.80
2018-06-21T13:35:34.514Z,23.50
2018-06-21T13:38:03.140Z,23.30
2018-06-21T13:40:31.949Z,23.20
2018-06-21T13:43:00.645Z,23.30
2018-06-21T13:45:29.289Z,23.00
2018-06-21T13:47:57.905Z,22.80
2018-06-21T13:50:26.695Z,22.30
2018-06-21T13:52:55.304Z,22.20
2018-06-21T13:55:24.113Z,22.20
2018-06-21T13:57:52.797Z,22.30
2018-06-21T14:00:21.466Z,22.20
2018-06-21T14:02:50.141Z,22.10
2018-06-21T14:05:19.018Z,22.10
2018-06-21T14:07:47.835Z,22.00
2018-06-21T14:10:16.429Z,22.10
2018-06-21T14:12:45.125Z,22.20
2018-06-21T14:15:13.893Z,21.80
2018-06-21T14:17:42.579Z,22.10
2018-06-21T14:20:11.340Z,21.90
2018-06-21T14:22:40.134Z,21.60
2018-06-21T14:25:08.852Z,21.70
2018-06-21T14:27:37.428Z,21.70
2018-06-21T14:30:06.130Z,21.40
2018-06-21T14:32:34.725Z,21.80
2018-06-21T14:35:03.369Z,21.30
2018-06-21T14:37:32.073Z,20.90
2018-06-21T14:40:00.677Z,21.00
2018-06-21T14:42:29.360Z,21.10
2018-06-21T14:44:57.936Z,21.50
2018-06-21T14:47:26.548Z,21.40
2018-06-21T14:49:55.178Z,21.60
2018-06-21T14:52:23.926Z,21.10
2018-06-21T14:54:52.589Z,21.00
2018-06-21T14:57:21.229Z,20.70
2018-06-21T14:59:49.847Z,20.80
2018-06-21T15:02:18.480Z,20.50
2018-06-21T15:04:47.117Z,19.90
2018-06-21T15:07:15.873Z,19.80
2018-06-21T15:09:44.897Z,19.80
2018-06-21T15:12:13.656Z,19.70
2018-06-21T15:14:42.266Z,20.00
2018-06-21T15:17:10.945Z,20.10
2018-06-21T15:19:39.733Z,19.50
2018-06-21T15:22:08.344Z,19.60
2018-06-21T15:24:36.997Z,19.80
2018-06-21T15:27:05.672Z,20.10
2018-06-21T15:29:34.495Z,20.30
2018-06-21T15:32:03.212Z,20.40
2018-06-21T15:34:32.018Z,20.40
2018-06-21T15:37:00.740Z,20.10
2018-06-21T15:39:29.381Z,20.30
2018-06-21T15:41:57.990Z,20.30
2018-06-21T15:44:26.696Z,20.30
2018-06-21T15:46:55.515Z,20.20
2018-06-21T15:49:24.314Z,20.30
2018-06-21T15:51:53.047Z,20.10
2018-06-21T15:54:21.713Z,20.20
2018-06-21T15:56:50.331Z,20.30
2018-06-21T15:59:18.936Z,20.40
2018-06-21T16:01:47.638Z,20.30
2018-06-21T16:04:16.277Z,20.40
2018-06-21T16:06:44.983Z,20.60
2018-06-21T16:09:13.577Z,20.70
2018-06-21T16:11:42.236Z,20.60
2018-06-21T16:14:10.884Z,20.70
2018-06-21T16:16:39.502Z,20.90
2018-06-21T16:19:08.152Z,20.80
2018-06-21T16:21:36.876Z,20.80
2018-06-21T16:24:05.566Z,20.90
2018-06-21T16:26:34.335Z,20.80
2018-06-21T16:29:03.052Z,20.80
2018-06-21T16:31:31.692Z,21.00
2018-06-21T16:34:00.285Z,20.90
2018-06-21T16:36:29.001Z,20.60
2018-06-21T16:38:57.596Z,20.60
2018-06-21T16:41:26.280Z,20.80
2018-06-21T16:43:54.912Z,20.90
2018-06-21T16:46:23.525Z,20.70
2018-06-21T16:48:52.176Z,20.90
2018-06-21T16:51:20.808Z,20.90
2018-06-21T16:53:49.498Z,21.00
2018-06-21T16:56:18.157Z,20.60
2018-06-21T16:58:46.736Z,20.50
2018-06-21T17:01:15.390Z,20.50
2018-06-21T17:03:44.233Z,20.60
2018-06-21T17:06:13.032Z,20.60
2018-06-21T17:08:41.750Z,20.20
2018-06-21T17:11:10.413Z,20.30
2018-06-21T17:13:39.294Z,20.50
2018-06-21T17:16:08.144Z,20.30
2018-06-21T17:18:37.145Z,20.20
2018-06-21T17:21:05.867Z,20.10
2018-06-21T17:23:34.756Z,19.70
2018-06-21T17:26:03.441Z,19.90
2018-06-21T17:28:32.133Z,19.70
2018-06-21T17:31:00.821Z,19.60
2018-06-21T17:33:29.485Z,19.60
2018-06-21T17:35:58.116Z,19.50
2018-06-21T17:38:26.807Z,19.30
2018-06-21T17:40:55.525Z,19.30
2018-06-21T17:43:24.137Z,19.10
2018-06-21T17:45:52.947Z,19.30
2018-06-21T17:48:21.635Z,19.30
2018-06-21T17:50:50.409Z,19.60
2018-06-21T17:53:19.200Z,19.50
2018-06-21T17:55:47.820Z,19.30
2018-06-21T17:58:16.468Z,19.40
2018-06-21T18:00:45.123Z,19.50
2018-06-21T18:03:14.353Z,19.70
2018-06-21T18:05:43.013Z,19.70
2018-06-21T18:08:11.736Z,19.60
2018-06-21T18:10:40.383Z,19.70
2018-06-21T18:13:09.024Z,19.50
2018-06-21T18:15:37.645Z,19.20
2018-06-21T18:18:06.456Z,19.00
2018-06-21T18:20:35.286Z,19.10
2018-06-21T18:23:04.020Z,19.30
2018-06-21T18:25:32.690Z,19.10
2018-06-21T18:28:02.197Z,19.20
2018-06-21T18:30:30.825Z,18.90
2018-06-21T18:32:59.429Z,18.80
2018-06-21T18:35:28.228Z,18.70
2018-06-21T18:37:57.025Z,18.60
2018-06-21T18:40:25.782Z,18.80
2018-06-21T18:42:54.394Z,18.70
2018-06-21T18:45:23.237Z,18.90
2018-06-21T18:47:51.954Z,18.70
2018-06-21T18:50:20.685Z,18.50
2018-06-21T18:52:49.738Z,18.30
2018-06-21T18:55:18.747Z,18.20
2018-06-21T18:57:47.643Z,18.20
2018-06-21T19:00:16.733Z,18.30
2018-06-21T19:02:45.368Z,18.30
2018-06-21T19:05:14.063Z,18.20
2018-06-21T19:07:43.505Z,18.40
2018-06-21T19:10:17.408Z,18.60
2018-06-21T19:12:46.119Z,18.60
2018-06-21T19:15:14.729Z,18.40
2018-06-21T19:17:43.693Z,18.40
2018-06-21T19:20:12.508Z,18.40
2018-06-21T19:22:41.244Z,18.20
2018-06-21T19:25:09.854Z,18.50
2018-06-21T19:27:39.359Z,18.30
2018-06-21T19:30:08.030Z,18.50
2018-06-21T19:32:37.526Z,18.40
2018-06-21T19:35:06.138Z,18.20
2018-06-21T19:37:34.879Z,18.40
2018-06-21T19:40:03.575Z,18.30
2018-06-21T19:42:32.345Z,18.40
2018-06-21T19:45:01.029Z,18.30
2018-06-21T19:47:30.641Z,18.20
2018-06-21T19:49:59.237Z,18.40
2018-06-21T19:52:27.910Z,18.30
2018-06-21T19:54:56.624Z,18.40
2018-06-21T19:57:25.273Z,18.30
2018-06-21T19:59:53.964Z,18.10
2018-06-21T20:02:26.115Z,18.20
2018-06-21T20:04:54.873Z,18.20
2018-06-21T20:07:23.536Z,18.40
2018-06-21T20:09:52.211Z,18.20
2018-06-21T20:12:20.896Z,17.90
2018-06-21T20:14:49.584Z,18.00
2018-06-21T20:17:18.448Z,17.70
2018-06-21T20:19:52.228Z,17.80
2018-06-21T20:22:20.920Z,17.50
2018-06-21T20:24:49.655Z,17.20
2018-06-21T20:27:18.539Z,17.50
2018-06-21T20:29:47.160Z,17.30
2018-06-21T20:32:15.744Z,17.30
2018-06-21T20:34:44.505Z,17.30
2018-06-21T20:37:15.293Z,17.40
2018-06-21T20:39:44.432Z,17.40
2018-06-21T20:42:13.146Z,17.50
2018-06-21T20:44:41.936Z,17.70
2018-06-21T20:47:10.618Z,17.40
2018-06-21T20:49:39.316Z,17.20
2018-06-21T20:52:12.294Z,17.40
2018-06-21T20:54:41.058Z,17.60
2018-06-21T20:57:09.721Z,17.70
2018-06-21T20:59:38.509Z,17.50
2018-06-21T21:02:07.323Z,17.40
2018-06-21T21:04:47.241Z,17.60
2018-06-21T21:07:15.963Z,17.60
2018-06-21T21:09:44.568Z,17.50
2018-06-21T21:12:13.298Z,17.40
2018-06-21T21:14:41.917Z,17.30
2018-06-21T21:17:10.574Z,17.40
2018-06-21T21:19:39.444Z,17.50
2018-06-21T21:30:33.018Z,16.90
2018-06-21T21:33:01.681Z,16.80
2018-06-21T21:35:30.596Z,17.10
2018-06-21T21:37:59.193Z,16.60
2018-06-21T21:40:27.833Z,16.80
2018-06-21T21:42:56.425Z,17.00
2018-06-21T21:45:25.316Z,16.90
2018-06-21T21:47:53.982Z,16.80
2018-06-21T21:50:22.642Z,16.80
2018-06-21T21:52:51.222Z,16.90
2018-06-21T21:55:19.828Z,17.00
2018-06-21T21:57:48.575Z,17.00
2018-06-21T22:00:51.574Z,16.90
2018-06-21T22:03:20.462Z,16.70
2018-06-21T22:05:49.088Z,16.70
2018-06-21T22:08:17.700Z,16.70
2018-06-21T22:10:47.226Z,16.80
2018-06-21T22:13:16.435Z,16.50
2018-06-21T22:15:45.422Z,16.60
2018-06-21T22:18:14.009Z,16.70
2018-06-21T22:20:42.640Z,16.60
2018-06-21T22:23:11.393Z,16.70
2018-06-21T22:25:40.301Z,16.70
2018-06-21T22:28:08.867Z,16.50
2018-06-21T22:30:37.552Z,16.40
2018-06-21T22:33:06.165Z,16.40
2018-06-21T22:35:34.758Z,16.40
2018-06-21T22:38:03.395Z,16.50
2018-06-21T22:40:32.183Z,16.40
2018-06-21T22:43:00.808Z,16.20
2018-06-21T22:45:29.568Z,16.20
2018-06-21T22:47:58.192Z,16.20
2018-06-21T22:50:26.760Z,16.20
2018-06-21T22:55:23.890Z,16.30
2018-06-21T22:57:52.577Z,16.30
2018-06-21T23:00:21.202Z,16.20
2018-06-21T23:02:49.816Z,16.20
2018-06-21T23:05:18.503Z,16.10
2018-06-21T23:07:47.167Z,16.00
2018-06-21T23:10:15.748Z,15.90
2018-06-21T23:15:12.762Z,16.00
2018-06-21T23:17:41.429Z,15.90
2018-06-21T23:20:10.216Z,16.00
2018-06-21T23:22:38.828Z,16.10
2018-06-21T23:25:07.424Z,16.00
2018-06-21T23:27:36.117Z,15.80
2018-06-21T23:30:05.006Z,15.90
2018-06-21T23:32:33.638Z,16.00
2018-06-21T23:35:02.229Z,15.80
2018-06-21T23:37:30.833Z,15.90
2018-06-21T23:39:59.477Z,15.80
2018-06-21T23:44:56.377Z,15.70
2018-06-21T23:47:24.981Z,15.50
2018-06-21T23:49:53.586Z,15.60
2018-06-21T23:52:22.244Z,15.70
2018-06-21T23:54:50.930Z,15.60
2018-06-21T23:57:19.541Z,15.70
2018-06-21T23:59:48.101Z,15.70
